Time;durP1;ratioP1;P1;durP2;ratioP2;P2;SDS_P1;SDS_P2;PMS_P1;PMS_P2;Temp;Humidity;BMP_temperature;BMP_pressure;BME280_temperature;BME280_humidity;BME280_pressure;Samples;Min_cycle;Max_cycle;Signal;HPM_P1;HPM_P2
2022/07/16 00:01:22;;;;;;;4.72;1.85;;;19.90;55.10;;;;;;5015836;28;20080;-60
2022/07/16 00:01:44;;;;;;;3.33;1.48;;;19.90;55.30;;;;;;5015137;28;20034;-60
2022/07/16 00:04:10;;;;;;;4.82;2.00;;;19.90;55.40;;;;;;5015037;28;20096;-60
2022/07/16 00:06:36;;;;;;;4.15;1.70;;;19.80;55.40;;;;;;5015886;28;20018;-60
2022/07/16 00:09:03;;;;;;;4.22;1.92;;;19.90;55.50;;;;;;5014986;28;20422;-61
2022/07/16 00:11:28;;;;;;;4.75;1.80;;;19.90;55.60;;;;;;5016621;28;20506;-60
2022/07/16 00:13:54;;;;;;;4.18;2.00;;;19.90;55.70;;;;;;5015890;28;20041;-60
2022/07/16 00:16:20;;;;;;;4.82;2.00;;;19.90;55.70;;;;;;5016256;28;20030;-60
2022/07/16 00:21:30;;;;;;;4.13;1.85;;;19.90;55.80;;;;;;5014583;28;20030;-60
2022/07/16 00:23:55;;;;;;;5.07;2.20;;;19.90;55.80;;;;;;5016465;28;20030;-60
2022/07/16 00:26:21;;;;;;;3.58;1.60;;;19.90;55.80;;;;;;5015454;28;20033;-60
2022/07/16 00:28:47;;;;;;;7.30;2.03;;;19.90;55.90;;;;;;5015420;28;20109;-60
2022/07/16 00:31:12;;;;;;;3.85;1.70;;;19.90;56.00;;;;;;5015624;28;20022;-60
2022/07/16 00:33:38;;;;;;;4.65;1.85;;;19.90;56.00;;;;;;5016351;28;20522;-60
2022/07/16 00:36:04;;;;;;;6.28;2.22;;;19.90;56.10;;;;;;5014656;28;20042;-60
2022/07/16 00:38:30;;;;;;;4.00;1.75;;;19.90;56.20;;;;;;5015477;28;20076;-60
2022/07/16 00:40:56;;;;;;;4.57;1.55;;;19.90;56.20;;;;;;5014670;28;20037;-60
2022/07/16 00:43:22;;;;;;;4.35;1.70;;;19.90;56.30;;;;;;5016467;28;20034;-61
2022/07/16 00:45:48;;;;;;;3.33;1.63;;;19.90;56.20;;;;;;5014740;28;20033;-60
2022/07/16 00:48:13;;;;;;;3.40;1.67;;;20.00;56.20;;;;;;5014686;28;20029;-61
2022/07/16 00:50:40;;;;;;;6.03;2.20;;;19.90;56.20;;;;;;5014964;28;20026;-60
2022/07/16 00:53:09;;;;;;;5.18;2.35;;;19.90;56.20;;;;;;5014462;28;20033;-60
2022/07/16 00:55:35;;;;;;;5.75;2.28;;;19.90;56.30;;;;;;5015446;28;20124;-60
2022/07/16 00:58:00;;;;;;;4.75;1.90;;;19.90;56.30;;;;;;5014575;28;20105;-60
2022/07/16 01:00:26;;;;;;;5.15;2.45;;;19.90;56.40;;;;;;5015174;28;20084;-60
2022/07/16 01:02:52;;;;;;;4.60;1.90;;;19.90;56.50;;;;;;5017044;28;20026;-60
2022/07/16 01:05:19;;;;;;;5.90;2.00;;;19.90;56.60;;;;;;5014908;28;20022;-60
2022/07/16 01:07:45;;;;;;;6.00;2.00;;;19.90;56.70;;;;;;5015614;28;20030;-60
2022/07/16 01:10:12;;;;;;;5.25;2.22;;;19.90;56.70;;;;;;5015443;28;20061;-60
2022/07/16 01:12:38;;;;;;;5.93;2.25;;;20.00;56.80;;;;;;5015741;28;20045;-60
2022/07/16 01:15:05;;;;;;;4.88;2.00;;;19.90;56.80;;;;;;5015061;28;20346;-59
2022/07/16 01:17:31;;;;;;;4.57;2.03;;;19.90;56.80;;;;;;5014304;28;20363;-60
2022/07/16 01:19:56;;;;;;;5.47;2.10;;;19.90;56.90;;;;;;5014556;28;20026;-60
2022/07/16 01:22:24;;;;;;;6.10;2.60;;;19.80;57.00;;;;;;5015783;28;20435;-60
2022/07/16 01:24:50;;;;;;;6.47;2.33;;;19.80;57.00;;;;;;5015981;28;20038;-60
2022/07/16 01:27:17;;;;;;;4.93;2.33;;;19.80;57.10;;;;;;5013727;28;20018;-60
2022/07/16 01:29:43;;;;;;;4.68;2.33;;;19.80;57.30;;;;;;5013570;28;20021;-60
2022/07/16 01:32:09;;;;;;;5.97;2.17;;;19.80;57.40;;;;;;5014681;28;20037;-60
2022/07/16 01:34:35;;;;;;;6.32;2.40;;;19.80;57.60;;;;;;5015784;28;20025;-60
2022/07/16 01:37:09;;;;;;;6.28;2.60;;;19.80;57.60;;;;;;5009505;28;20339;-60
2022/07/16 01:39:38;;;;;;;5.18;2.42;;;19.80;57.80;;;;;;5009375;28;20029;-60
2022/07/16 01:42:06;;;;;;;6.15;2.60;;;19.80;57.80;;;;;;5012081;28;20036;-60
2022/07/16 01:44:34;;;;;;;4.60;2.08;;;19.80;57.90;;;;;;5014383;28;20085;-60
2022/07/16 01:47:02;;;;;;;7.55;2.55;;;19.80;58.00;;;;;;5013611;28;20030;-60
2022/07/16 01:49:33;;;;;;;5.97;2.65;;;19.80;58.00;;;;;;5014887;28;20036;-60
2022/07/16 01:52:11;;;;;;;6.43;2.30;;;19.80;58.10;;;;;;5013912;28;20022;-60
2022/07/16 01:54:42;;;;;;;5.40;2.25;;;19.80;58.10;;;;;;5015123;28;20045;-60
2022/07/16 01:57:07;;;;;;;6.05;2.70;;;19.80;58.20;;;;;;5013044;28;20034;-60
2022/07/16 01:59:33;;;;;;;6.43;2.67;;;19.80;58.20;;;;;;5013515;28;20107;-60
2022/07/16 02:01:59;;;;;;;7.57;3.00;;;19.80;58.20;;;;;;5012640;28;20037;-60
2022/07/16 02:04:24;;;;;;;6.22;2.85;;;19.80;58.30;;;;;;5014422;28;20034;-60
2022/07/16 02:06:50;;;;;;;5.07;2.45;;;19.80;58.30;;;;;;5013834;28;20026;-60
2022/07/16 02:09:16;;;;;;;6.10;2.58;;;19.80;58.40;;;;;;5011779;28;20447;-60
2022/07/16 02:11:41;;;;;;;7.40;2.85;;;19.80;58.50;;;;;;5016788;28;20117;-60
2022/07/16 02:14:07;;;;;;;5.40;2.42;;;19.80;58.50;;;;;;5018162;28;20485;-60
2022/07/16 02:16:32;;;;;;;5.75;2.25;;;19.80;58.60;;;;;;5018201;28;20056;-61
2022/07/16 02:18:58;;;;;;;7.03;2.55;;;19.80;58.60;;;;;;5015978;28;20040;-60
2022/07/16 02:21:24;;;;;;;8.40;2.95;;;19.80;58.70;;;;;;5014292;28;20030;-60
2022/07/16 02:23:49;;;;;;;5.38;2.53;;;19.80;58.70;;;;;;5019244;28;20030;-60
2022/07/16 02:26:15;;;;;;;5.65;2.60;;;19.80;58.70;;;;;;5010917;28;20021;-60
2022/07/16 02:28:40;;;;;;;5.53;2.10;;;19.90;58.80;;;;;;5011301;28;20114;-60
2022/07/16 02:31:06;;;;;;;5.05;2.38;;;19.90;58.90;;;;;;5014010;28;20036;-60
2022/07/16 02:33:32;;;;;;;7.85;2.97;;;19.80;58.90;;;;;;5012599;28;20026;-60
2022/07/16 02:35:57;;;;;;;6.00;2.45;;;19.80;59.10;;;;;;5013986;28;20030;-60
2022/07/16 02:38:23;;;;;;;6.32;2.47;;;19.80;59.20;;;;;;5012611;28;20026;-60
2022/07/16 02:40:49;;;;;;;5.28;2.13;;;19.80;59.20;;;;;;5014906;28;20124;-60
2022/07/16 02:43:14;;;;;;;6.22;2.90;;;19.80;59.20;;;;;;5016307;28;20359;-60
2022/07/16 02:45:42;;;;;;;5.60;2.22;;;19.80;59.20;;;;;;5017296;28;20097;-60
2022/07/16 02:48:10;;;;;;;7.97;2.63;;;19.80;59.30;;;;;;5016508;28;20443;-60
2022/07/16 02:50:35;;;;;;;6.50;2.60;;;19.90;59.40;;;;;;5020027;28;20018;-60
2022/07/16 02:53:01;;;;;;;4.55;2.13;;;19.80;59.50;;;;;;5015074;28;20124;-60
2022/07/16 02:55:27;;;;;;;5.80;2.50;;;19.80;59.50;;;;;;5016370;28;20049;-60
2022/07/16 02:57:53;;;;;;;4.47;1.95;;;19.80;59.60;;;;;;5016128;28;20335;-60
2022/07/16 03:00:19;;;;;;;6.40;2.40;;;19.80;59.70;;;;;;5012322;28;20026;-60
2022/07/16 03:02:45;;;;;;;5.40;2.40;;;19.80;59.80;;;;;;5012695;28;20030;-60
2022/07/16 03:05:12;;;;;;;5.47;2.13;;;19.80;59.90;;;;;;5016396;28;20033;-60
2022/07/16 03:07:38;;;;;;;7.38;2.33;;;19.80;60.00;;;;;;5016495;28;20033;-60
2022/07/16 03:10:08;;;;;;;6.75;2.33;;;19.80;60.10;;;;;;5015426;28;20367;-60
2022/07/16 03:12:33;;;;;;;5.70;2.03;;;19.80;60.30;;;;;;5015363;28;20060;-60
2022/07/16 03:15:02;;;;;;;6.35;2.50;;;19.80;60.40;;;;;;5016289;28;20458;-60
2022/07/16 03:17:27;;;;;;;4.85;2.13;;;19.80;60.50;;;;;;5014711;28;20176;-60
2022/07/16 03:19:53;;;;;;;6.57;2.53;;;19.80;60.70;;;;;;5016170;28;20124;-60
2022/07/16 03:22:20;;;;;;;7.10;2.10;;;19.80;60.80;;;;;;5016400;28;20080;-60
2022/07/16 03:24:46;;;;;;;5.45;2.28;;;19.80;60.90;;;;;;5016173;28;20479;-60
2022/07/16 03:27:12;;;;;;;5.55;2.40;;;19.80;61.00;;;;;;5015006;28;20049;-62
2022/07/16 03:29:38;;;;;;;4.35;2.20;;;19.70;61.20;;;;;;5015180;28;20034;-60
2022/07/16 03:32:04;;;;;;;6.22;2.42;;;19.70;61.40;;;;;;5020219;28;20037;-60
2022/07/16 03:34:31;;;;;;;5.78;2.30;;;19.70;61.40;;;;;;5015819;28;20025;-60
2022/07/16 03:36:56;;;;;;;6.90;2.53;;;19.70;61.50;;;;;;5017379;28;20057;-60
2022/07/16 03:39:22;;;;;;;7.43;2.53;;;19.70;61.50;;;;;;5016054;28;20033;-60
2022/07/16 03:41:48;;;;;;;5.45;2.42;;;19.70;61.50;;;;;;5016679;28;20022;-60
2022/07/16 03:44:13;;;;;;;6.03;2.70;;;19.70;62.20;;;;;;5017996;28;20033;-60
2022/07/16 03:46:40;;;;;;;4.95;2.40;;;19.70;61.60;;;;;;5016995;28;20125;-60
2022/07/16 03:49:06;;;;;;;7.53;2.75;;;19.70;61.70;;;;;;5015525;28;20415;-60
2022/07/16 03:51:32;;;;;;;5.57;2.45;;;19.70;61.80;;;;;;5017983;28;20123;-60
2022/07/16 03:53:58;;;;;;;5.18;2.53;;;19.70;61.90;;;;;;5016091;28;20102;-60
2022/07/16 03:56:26;;;;;;;5.88;2.72;;;19.60;61.90;;;;;;5016263;28;20459;-60
2022/07/16 03:58:53;;;;;;;6.68;3.00;;;19.60;62.00;;;;;;5016666;28;20087;-60
2022/07/16 04:01:19;;;;;;;7.53;3.38;;;19.60;62.20;;;;;;5017759;28;20367;-60
2022/07/16 04:03:45;;;;;;;7.30;2.97;;;19.60;62.20;;;;;;5021028;28;20060;-60
2022/07/16 04:06:10;;;;;;;7.75;3.00;;;19.60;62.30;;;;;;5022808;28;20085;-60
2022/07/16 04:08:36;;;;;;;6.15;3.20;;;19.60;62.50;;;;;;5030191;28;20080;-60
2022/07/16 04:11:03;;;;;;;9.02;3.38;;;19.60;62.60;;;;;;5017200;28;20558;-60
2022/07/16 04:13:28;;;;;;;7.05;3.22;;;19.60;62.70;;;;;;5016370;28;20038;-60
2022/07/16 04:15:54;;;;;;;7.03;3.00;;;19.60;62.80;;;;;;5014435;28;20478;-60
2022/07/16 04:18:20;;;;;;;6.53;2.88;;;19.60;62.90;;;;;;5016556;28;20041;-60
2022/07/16 04:20:49;;;;;;;7.40;3.33;;;19.60;63.00;;;;;;5017468;28;20053;-60
2022/07/16 04:23:15;;;;;;;7.28;3.50;;;19.60;63.00;;;;;;5015921;28;20329;-60
2022/07/16 04:25:40;;;;;;;6.75;3.35;;;19.60;63.10;;;;;;5014742;28;20029;-60
2022/07/16 04:28:06;;;;;;;7.20;2.92;;;19.60;63.30;;;;;;5015215;28;20037;-60
2022/07/16 04:30:32;;;;;;;7.30;2.75;;;19.60;63.40;;;;;;5017053;28;20447;-60
2022/07/16 04:32:58;;;;;;;6.13;3.03;;;19.60;63.70;;;;;;5016208;28;20101;-60
2022/07/16 04:35:23;;;;;;;6.57;3.00;;;19.60;64.00;;;;;;5004665;28;20036;-60
2022/07/16 04:37:49;;;;;;;5.30;2.50;;;19.60;64.30;;;;;;5016115;28;20029;-61
2022/07/16 04:40:16;;;;;;;5.28;2.45;;;19.60;64.60;;;;;;5013506;28;20560;-60
2022/07/16 04:42:44;;;;;;;6.78;2.40;;;19.60;64.90;;;;;;5025650;28;20025;-60
2022/07/16 04:45:11;;;;;;;5.50;2.40;;;19.50;65.30;;;;;;5015092;28;20038;-60
2022/07/16 04:47:38;;;;;;;5.93;2.67;;;19.60;65.60;;;;;;5017658;28;20125;-60
2022/07/16 04:50:04;;;;;;;4.90;2.13;;;19.50;65.70;;;;;;5010515;28;20490;-60
2022/07/16 04:52:30;;;;;;;5.65;2.45;;;19.50;65.90;;;;;;5015748;28;20358;-60
2022/07/16 04:54:57;;;;;;;9.18;3.08;;;19.50;66.30;;;;;;5013783;28;20041;-61
2022/07/16 04:57:24;;;;;;;6.88;2.75;;;19.50;66.40;;;;;;5014483;28;20030;-59
2022/07/16 04:59:50;;;;;;;5.85;2.70;;;19.50;66.60;;;;;;5014925;28;20033;-59
2022/07/16 05:05:00;;;;;;;5.93;2.42;;;19.50;67.60;;;;;;5008531;28;20029;-60
2022/07/16 05:07:26;;;;;;;4.70;2.58;;;19.50;67.00;;;;;;5016622;28;20033;-58
2022/07/16 05:09:51;;;;;;;5.47;2.30;;;19.50;67.00;;;;;;5020514;28;20039;-58
2022/07/16 05:12:17;;;;;;;6.95;2.65;;;19.50;67.10;;;;;;5015249;28;20346;-58
2022/07/16 05:14:42;;;;;;;6.50;2.65;;;19.50;67.20;;;;;;5014087;28;20451;-59
2022/07/16 05:17:08;;;;;;;6.38;2.95;;;19.60;67.20;;;;;;5016720;28;20431;-59
2022/07/16 05:19:34;;;;;;;7.18;3.40;;;19.60;67.30;;;;;;5013008;28;20042;-58
2022/07/16 05:21:59;;;;;;;7.90;3.15;;;19.60;67.30;;;;;;5015769;28;20041;-58
2022/07/16 05:24:25;;;;;;;5.82;3.00;;;19.70;67.20;;;;;;5018658;28;20160;-58
2022/07/16 05:26:51;;;;;;;7.18;3.10;;;19.80;67.10;;;;;;5015203;28;20105;-59
2022/07/16 05:29:16;;;;;;;6.35;3.45;;;19.90;67.10;;;;;;5012944;28;20065;-58
2022/07/16 05:31:42;;;;;;;7.30;3.40;;;19.90;67.00;;;;;;5014377;28;20081;-59
2022/07/16 05:34:07;;;;;;;7.78;3.53;;;20.00;67.00;;;;;;5013793;28;20030;-58
2022/07/16 05:36:33;;;;;;;7.50;3.70;;;20.10;67.00;;;;;;5015216;28;20037;-58
2022/07/16 05:38:59;;;;;;;5.70;2.72;;;20.20;66.90;;;;;;5013545;28;20340;-58
2022/07/16 05:41:24;;;;;;;7.55;3.33;;;20.20;66.80;;;;;;5015581;28;20029;-57
2022/07/16 05:43:50;;;;;;;7.35;2.97;;;20.30;66.70;;;;;;5014256;28;20886;-58
2022/07/16 05:46:15;;;;;;;8.52;3.17;;;20.30;66.70;;;;;;5015519;28;20041;-59
2022/07/16 05:48:41;;;;;;;6.38;2.75;;;20.40;66.70;;;;;;5017425;28;20351;-59
2022/07/16 05:51:07;;;;;;;9.82;3.17;;;20.50;66.50;;;;;;5013398;28;20349;-58
2022/07/16 05:53:32;;;;;;;6.65;2.63;;;20.60;66.30;;;;;;5013019;28;20025;-58
2022/07/16 05:55:58;;;;;;;7.18;2.58;;;20.70;66.20;;;;;;5013145;28;20042;-59
2022/07/16 05:58:23;;;;;;;4.53;2.17;;;20.80;66.10;;;;;;5013040;28;20044;-55
2022/07/16 06:00:49;;;;;;;4.80;2.10;;;20.90;65.80;;;;;;5013786;28;20034;-60
2022/07/16 06:03:15;;;;;;;5.68;2.38;;;21.00;65.50;;;;;;5012073;28;20034;-59
2022/07/16 06:05:40;;;;;;;5.63;2.17;;;21.10;65.40;;;;;;5014874;28;20370;-59
2022/07/16 06:08:06;;;;;;;4.13;2.08;;;21.20;65.20;;;;;;5013502;28;20026;-59
2022/07/16 06:10:32;;;;;;;5.32;2.08;;;21.20;64.80;;;;;;5014029;28;20375;-60
2022/07/16 06:12:57;;;;;;;4.78;2.10;;;21.30;64.40;;;;;;5012188;28;20065;-60
2022/07/16 06:15:23;;;;;;;3.72;1.63;;;21.30;64.20;;;;;;5011493;28;20037;-59
2022/07/16 06:17:49;;;;;;;5.18;1.90;;;21.40;63.90;;;;;;5012230;28;20034;-60
2022/07/16 06:20:14;;;;;;;4.55;1.95;;;21.40;63.80;;;;;;5011648;28;20030;-60
2022/07/16 06:22:40;;;;;;;4.20;1.85;;;21.50;63.50;;;;;;5011917;28;20076;-60
2022/07/16 06:25:06;;;;;;;4.63;1.83;;;21.60;63.20;;;;;;5009703;28;20143;-60
2022/07/16 06:27:32;;;;;;;4.60;1.90;;;21.80;62.90;;;;;;5011920;28;20029;-59
2022/07/16 06:30:04;;;;;;;6.70;1.83;;;21.90;62.40;;;;;;5012943;28;20026;-59
2022/07/16 06:32:30;;;;;;;6.15;1.83;;;22.10;61.90;;;;;;5008476;28;20022;-60
2022/07/16 06:34:55;;;;;;;3.90;1.50;;;22.10;61.50;;;;;;5013505;28;20048;-60
2022/07/16 06:37:21;;;;;;;4.32;1.88;;;22.20;61.40;;;;;;5015346;28;20048;-59
2022/07/16 06:39:47;;;;;;;5.03;1.75;;;22.20;61.00;;;;;;5014879;28;20036;-60
2022/07/16 06:42:12;;;;;;;3.88;1.60;;;22.20;60.60;;;;;;5013712;28;20034;-60
2022/07/16 06:44:40;;;;;;;6.07;1.60;;;22.30;60.10;;;;;;5012215;28;20033;-60
2022/07/16 06:47:06;;;;;;;4.30;1.52;;;22.30;59.30;;;;;;5013345;28;20061;-59
2022/07/16 06:49:32;;;;;;;5.30;1.48;;;22.40;59.10;;;;;;5013617;28;20022;-59
2022/07/16 06:51:57;;;;;;;3.78;1.50;;;22.40;58.90;;;;;;5012068;28;20049;-59
2022/07/16 06:54:23;;;;;;;4.45;1.80;;;22.50;58.60;;;;;;5013799;28;20109;-59
2022/07/16 06:56:49;;;;;;;5.25;1.70;;;22.70;58.30;;;;;;5014173;28;20026;-58
2022/07/16 06:59:14;;;;;;;4.70;1.80;;;23.00;57.60;;;;;;5013372;28;20026;-58
2022/07/16 07:01:40;;;;;;;4.85;1.48;;;23.30;57.00;;;;;;5016332;28;20084;-59
2022/07/16 07:04:05;;;;;;;5.85;1.98;;;23.50;56.40;;;;;;5034295;28;20021;-59
2022/07/16 07:06:31;;;;;;;4.38;1.38;;;23.60;55.70;;;;;;5033580;28;20450;-59
2022/07/16 07:08:57;;;;;;;3.70;1.17;;;23.70;55.30;;;;;;5019442;28;20120;-59
2022/07/16 07:11:22;;;;;;;3.58;1.17;;;23.70;54.70;;;;;;5034215;28;20025;-60
2022/07/16 07:13:48;;;;;;;4.50;1.45;;;23.90;54.30;;;;;;5034017;28;20037;-59
2022/07/16 07:16:14;;;;;;;5.22;1.45;;;24.00;53.80;;;;;;5029553;28;20439;-59
2022/07/16 07:18:39;;;;;;;4.03;1.25;;;24.00;53.20;;;;;;5019185;28;20478;-59
2022/07/16 07:21:05;;;;;;;2.58;1.10;;;24.00;52.80;;;;;;5028465;28;20401;-59
2022/07/16 07:23:31;;;;;;;4.97;1.20;;;24.20;52.20;;;;;;5027641;28;20029;-59
2022/07/16 07:25:57;;;;;;;2.40;1.13;;;24.30;51.40;;;;;;5016316;28;20447;-59
2022/07/16 07:28:23;;;;;;;4.93;1.50;;;24.40;50.60;;;;;;5032402;28;20033;-60
2022/07/16 07:30:48;;;;;;;3.03;1.30;;;24.50;49.80;;;;;;5017559;28;20037;-60
2022/07/16 07:33:14;;;;;;;4.55;1.25;;;24.50;49.00;;;;;;5017782;28;20391;-60
2022/07/16 07:35:40;;;;;;;2.95;1.10;;;24.60;48.80;;;;;;5017452;28;20045;-60
2022/07/16 07:38:06;;;;;;;5.43;1.27;;;24.70;48.60;;;;;;5017719;28;20034;-59
2022/07/16 07:40:32;;;;;;;4.28;1.10;;;24.80;48.40;;;;;;5017126;28;20340;-59
2022/07/16 07:42:59;;;;;;;6.82;1.40;;;24.90;48.10;;;;;;5017532;28;20459;-59
2022/07/16 07:45:26;;;;;;;2.42;0.90;;;25.10;47.90;;;;;;5017022;28;20379;-59
2022/07/16 07:47:52;;;;;;;2.85;0.85;;;25.10;47.50;;;;;;5017176;28;20450;-60
2022/07/16 07:50:17;;;;;;;3.92;1.05;;;25.20;46.90;;;;;;5017624;28;20018;-59
2022/07/16 07:52:43;;;;;;;3.08;1.17;;;25.20;46.40;;;;;;5016586;28;20071;-60
2022/07/16 07:55:09;;;;;;;3.28;1.20;;;25.00;45.90;;;;;;5016484;28;20026;-59
2022/07/16 07:57:34;;;;;;;3.63;1.00;;;24.80;45.90;;;;;;5016903;28;20045;-60
2022/07/16 08:00:00;;;;;;;3.00;1.38;;;24.90;45.80;;;;;;5018875;28;20030;-59
2022/07/16 08:02:26;;;;;;;3.05;1.02;;;24.90;45.60;;;;;;5031332;28;20018;-60
2022/07/16 08:04:52;;;;;;;2.15;0.90;;;24.70;45.70;;;;;;5031439;28;20423;-60
2022/07/16 08:07:18;;;;;;;5.60;1.10;;;24.40;45.60;;;;;;5029388;28;20021;-59
2022/07/16 08:09:43;;;;;;;2.58;0.90;;;24.30;45.80;;;;;;5022879;28;20117;-60
2022/07/16 08:12:09;;;;;;;3.33;1.20;;;24.30;45.80;;;;;;5032815;28;20037;-60
2022/07/16 08:14:36;;;;;;;3.38;1.15;;;24.20;45.70;;;;;;5027517;28;20020;-60
2022/07/16 08:17:02;;;;;;;4.50;1.20;;;24.10;45.80;;;;;;5033967;28;20036;-60
2022/07/16 08:19:28;;;;;;;3.30;1.00;;;24.20;45.60;;;;;;5023083;28;20021;-60
2022/07/16 08:21:53;;;;;;;4.57;1.02;;;24.10;45.80;;;;;;5023218;28;20569;-60
2022/07/16 08:27:04;;;;;;;3.85;1.23;;;23.90;45.90;;;;;;5029495;28;20049;-60
2022/07/16 08:29:30;;;;;;;2.75;1.02;;;23.60;46.00;;;;;;5020596;28;20032;-60
2022/07/16 08:31:55;;;;;;;3.42;0.98;;;23.60;46.10;;;;;;5029449;28;20108;-60
2022/07/16 08:34:23;;;;;;;3.33;1.00;;;23.80;45.70;;;;;;5035896;28;20087;-60
2022/07/16 08:36:49;;;;;;;3.28;1.10;;;23.90;45.70;;;;;;5023861;28;20479;-60
2022/07/16 08:39:15;;;;;;;3.55;1.10;;;24.20;45.60;;;;;;5033703;28;20442;-60
2022/07/16 08:41:42;;;;;;;3.22;1.10;;;24.40;45.10;;;;;;5036382;28;20021;-60
2022/07/16 08:44:09;;;;;;;5.65;1.27;;;24.70;44.90;;;;;;5035848;28;20025;-60
2022/07/16 08:46:35;;;;;;;3.28;1.10;;;24.90;44.60;;;;;;5036150;28;20041;-60
2022/07/16 08:49:01;;;;;;;5.22;1.20;;;25.10;44.50;;;;;;5034382;28;20116;-60
2022/07/16 08:51:32;;;;;;;2.60;0.75;;;25.30;44.20;;;;;;5014905;28;20026;-60
2022/07/16 08:54:15;;;;;;;1.58;1.00;;;25.50;43.80;;;;;;5014267;28;20407;-60
2022/07/16 08:56:43;;;;;;;3.47;1.17;;;25.60;43.40;;;;;;5010572;28;20041;-61
2022/07/16 08:59:09;;;;;;;2.35;1.02;;;25.70;43.20;;;;;;5016160;28;20034;-60
2022/07/16 09:01:34;;;;;;;1.95;0.90;;;25.90;42.80;;;;;;5016898;28;20807;-60
2022/07/16 09:04:01;;;;;;;2.83;0.93;;;26.00;42.40;;;;;;5033491;28;20079;-60
2022/07/16 09:06:27;;;;;;;4.03;0.85;;;26.10;41.70;;;;;;5019680;28;20053;-60
2022/07/16 09:08:54;;;;;;;0.90;0.60;;;26.20;41.40;;;;;;5024863;28;20069;-60
2022/07/16 09:11:25;;;;;;;6.38;1.25;;;26.40;41.10;;;;;;5025437;28;20095;-60
2022/07/16 09:14:09;;;;;;;3.45;1.02;;;26.50;40.40;;;;;;5018382;28;20455;-60
2022/07/16 09:16:43;;;;;;;4.47;0.90;;;26.60;39.90;;;;;;5028296;28;20104;-60
2022/07/16 09:19:20;;;;;;;4.15;0.85;;;26.60;40.00;;;;;;5010498;28;20083;-60
2022/07/16 09:22:15;;;;;;;2.90;0.82;;;26.80;39.60;;;;;;5023402;28;20037;-65
2022/07/16 09:24:43;;;;;;;3.08;1.00;;;26.80;39.10;;;;;;5013491;28;20087;-60
2022/07/16 09:27:17;;;;;;;3.33;1.20;;;26.70;39.20;;;;;;5034982;28;20025;-61
2022/07/16 09:29:47;;;;;;;2.70;0.98;;;27.00;39.10;;;;;;5035097;28;20022;-60
2022/07/16 09:32:34;;;;;;;3.60;1.30;;;27.30;38.90;;;;;;5035162;28;20033;-60
2022/07/16 09:35:11;;;;;;;3.63;0.98;;;27.50;38.50;;;;;;5034986;28;20458;-60
2022/07/16 09:37:55;;;;;;;4.38;1.23;;;27.40;37.50;;;;;;5020797;28;20029;-60
2022/07/16 09:40:35;;;;;;;3.30;0.77;;;26.90;37.80;;;;;;5034787;28;20037;-60
2022/07/16 09:43:04;;;;;;;2.50;0.80;;;26.80;37.90;;;;;;5034852;28;20040;-60
2022/07/16 09:45:30;;;;;;;2.08;0.80;;;26.90;38.20;;;;;;5033227;28;20032;-60
2022/07/16 09:47:56;;;;;;;3.88;0.80;;;27.00;37.80;;;;;;5033827;28;20022;-61
2022/07/16 09:50:22;;;;;;;2.08;0.82;;;27.10;37.60;;;;;;5026502;28;20454;-62
2022/07/16 09:52:47;;;;;;;2.13;0.85;;;27.10;37.40;;;;;;5016295;28;20037;-60
2022/07/16 09:55:13;;;;;;;2.22;0.73;;;27.10;37.40;;;;;;5019315;28;20184;-60
2022/07/16 09:57:42;;;;;;;3.28;1.15;;;27.10;37.20;;;;;;5004510;28;20095;-60
2022/07/16 10:00:08;;;;;;;3.40;0.90;;;27.20;37.00;;;;;;5023599;28;20172;-60
2022/07/16 10:02:42;;;;;;;2.65;0.80;;;27.20;37.00;;;;;;5021558;28;20084;-60
2022/07/16 10:05:08;;;;;;;2.63;0.70;;;27.20;36.80;;;;;;5031158;28;20390;-60
2022/07/16 10:07:33;;;;;;;2.30;0.85;;;27.40;36.80;;;;;;5015264;28;20030;-60
2022/07/16 10:09:59;;;;;;;2.85;0.88;;;27.60;36.60;;;;;;5019245;28;20434;-60
2022/07/16 10:12:27;;;;;;;2.88;0.90;;;27.80;36.50;;;;;;5029592;28;20048;-60
2022/07/16 10:14:54;;;;;;;3.47;0.90;;;28.00;36.00;;;;;;5027608;28;20042;-60
2022/07/16 10:17:38;;;;;;;3.33;0.88;;;28.00;35.70;;;;;;5024184;28;20352;-60
2022/07/16 10:20:08;;;;;;;2.42;0.77;;;28.10;35.40;;;;;;5011484;28;20061;-60
2022/07/16 10:22:36;;;;;;;3.28;0.90;;;27.90;35.70;;;;;;5006707;28;20037;-60
2022/07/16 10:25:11;;;;;;;3.53;1.05;;;27.40;36.00;;;;;;5017736;28;20073;-60
2022/07/16 10:27:37;;;;;;;2.55;0.88;;;27.10;36.50;;;;;;5017896;28;20402;-60
2022/07/16 10:30:12;;;;;;;2.63;0.80;;;27.10;36.70;;;;;;5019569;28;20062;-60
2022/07/16 10:33:00;;;;;;;2.72;0.75;;;27.20;36.60;;;;;;5013412;28;20026;-60
2022/07/16 10:35:30;;;;;;;3.00;1.00;;;27.30;36.10;;;;;;5012897;28;20435;-60
2022/07/16 10:38:12;;;;;;;6.53;1.05;;;27.10;36.20;;;;;;5012088;28;20030;-60
2022/07/16 10:40:40;;;;;;;3.55;0.90;;;26.90;36.40;;;;;;5011430;28;20040;-60
2022/07/16 10:43:14;;;;;;;4.28;1.20;;;26.70;36.60;;;;;;5012671;28;20029;-60
2022/07/16 10:45:54;;;;;;;3.92;1.13;;;26.80;36.60;;;;;;5013500;28;20037;-60
2022/07/16 10:48:26;;;;;;;3.00;0.83;;;26.90;36.30;;;;;;5011232;28;20030;-60
2022/07/16 10:51:10;;;;;;;2.03;0.60;;;27.10;36.20;;;;;;5012931;28;20037;-60
2022/07/16 10:53:58;;;;;;;3.58;0.90;;;27.40;36.00;;;;;;5013302;28;20026;-60
2022/07/16 10:56:44;;;;;;;5.57;1.38;;;27.40;36.00;;;;;;5018328;28;20459;-60
2022/07/16 10:59:21;;;;;;;3.75;0.95;;;27.00;36.00;;;;;;5013972;28;20108;-60
2022/07/16 11:01:51;;;;;;;5.03;0.90;;;27.00;36.20;;;;;;5019654;28;20331;-60
2022/07/16 11:04:35;;;;;;;4.93;1.05;;;27.10;36.30;;;;;;5023682;28;20036;-60
2022/07/16 11:07:04;;;;;;;3.17;0.88;;;27.00;36.30;;;;;;5034336;28;20037;-60
2022/07/16 11:09:32;;;;;;;2.45;0.80;;;26.70;37.20;;;;;;5034784;28;20463;-61
2022/07/16 11:12:08;;;;;;;4.65;0.98;;;26.60;36.90;;;;;;5017323;28;20018;-60
2022/07/16 11:14:35;;;;;;;2.22;0.90;;;26.60;36.60;;;;;;5015997;28;20114;-60
2022/07/16 11:17:01;;;;;;;4.45;0.90;;;26.90;36.40;;;;;;5018226;28;20033;-60
2022/07/16 11:19:27;;;;;;;3.58;1.00;;;27.00;36.40;;;;;;5018834;28;20014;-60
2022/07/16 11:21:59;;;;;;;3.78;0.90;;;27.20;36.30;;;;;;5017434;28;20497;-60
2022/07/16 11:24:26;;;;;;;3.53;0.75;;;27.30;36.10;;;;;;4996661;28;20032;-60
2022/07/16 11:26:53;;;;;;;3.85;1.23;;;27.30;36.10;;;;;;5017975;28;20034;-60
2022/07/16 11:29:25;;;;;;;3.45;0.90;;;27.20;36.00;;;;;;5016971;28;20021;-60
2022/07/16 11:31:51;;;;;;;3.08;0.70;;;27.30;36.10;;;;;;5016164;28;20030;-60
2022/07/16 11:34:22;;;;;;;2.25;1.02;;;27.40;36.00;;;;;;5020413;28;20459;-61
2022/07/16 11:36:50;;;;;;;4.47;1.10;;;27.50;36.00;;;;;;5016444;28;20455;-60
2022/07/16 11:39:18;;;;;;;6.18;1.00;;;27.40;36.20;;;;;;5016787;28;20128;-60
2022/07/16 11:41:47;;;;;;;3.03;0.90;;;27.00;36.30;;;;;;5017477;28;20038;-61
2022/07/16 11:44:20;;;;;;;4.53;0.88;;;27.10;36.80;;;;;;5017789;28;20057;-60
2022/07/16 11:46:50;;;;;;;1.50;0.70;;;27.10;36.70;;;;;;5016865;28;20539;-61
2022/07/16 11:49:24;;;;;;;2.85;1.20;;;27.20;36.40;;;;;;5015046;28;20030;-60
2022/07/16 11:51:50;;;;;;;2.90;0.77;;;27.30;36.10;;;;;;5017303;28;20030;-61
2022/07/16 11:54:16;;;;;;;3.33;1.00;;;27.40;35.80;;;;;;5018038;28;20022;-60
2022/07/16 11:56:42;;;;;;;2.60;1.15;;;27.50;35.50;;;;;;5013476;28;20042;-60
2022/07/16 11:59:17;;;;;;;3.78;1.10;;;27.50;35.40;;;;;;5014517;28;20029;-60
2022/07/16 12:01:43;;;;;;;3.53;1.15;;;27.50;35.40;;;;;;5017599;28;20034;-60
2022/07/16 12:04:09;;;;;;;4.82;0.93;;;27.30;35.60;;;;;;5021203;28;20021;-60
2022/07/16 12:06:35;;;;;;;3.03;0.88;;;27.20;35.70;;;;;;5028042;28;20040;-60
2022/07/16 12:09:02;;;;;;;3.00;0.90;;;27.20;35.70;;;;;;5033288;28;20045;-60
2022/07/16 12:11:32;;;;;;;2.47;0.50;;;27.10;35.70;;;;;;5029233;28;20034;-60
2022/07/16 12:13:58;;;;;;;3.27;0.73;;;27.10;35.70;;;;;;5029419;28;20054;-60
2022/07/16 12:16:24;;;;;;;5.38;1.00;;;27.00;35.90;;;;;;5023040;28;20290;-60
2022/07/16 12:19:00;;;;;;;4.53;1.08;;;26.80;36.20;;;;;;5029710;28;20069;-60
2022/07/16 12:21:37;;;;;;;3.88;0.93;;;26.50;36.50;;;;;;5012472;28;20087;-60
2022/07/16 12:24:04;;;;;;;2.13;0.75;;;26.30;36.60;;;;;;5024688;28;20049;-60
2022/07/16 12:26:34;;;;;;;2.40;0.70;;;26.40;36.90;;;;;;5015436;28;20108;-60
2022/07/16 12:29:01;;;;;;;4.88;1.20;;;26.50;36.90;;;;;;5014092;28;20037;-60
2022/07/16 12:31:31;;;;;;;1.60;0.65;;;26.60;36.70;;;;;;5015328;28;20460;-60
2022/07/16 12:33:58;;;;;;;4.57;1.10;;;26.60;36.40;;;;;;5014168;28;20030;-60
2022/07/16 12:36:32;;;;;;;4.60;1.02;;;26.70;36.50;;;;;;5009919;28;20070;-62
2022/07/16 12:39:09;;;;;;;4.25;1.00;;;26.80;36.40;;;;;;5013736;28;20053;-63
2022/07/16 12:41:37;;;;;;;3.40;0.90;;;26.70;37.00;;;;;;5013847;28;20053;-62
2022/07/16 12:44:10;;;;;;;4.57;1.23;;;26.60;36.30;;;;;;5026950;28;20030;-62
2022/07/16 12:46:46;;;;;;;5.18;0.90;;;26.60;36.40;;;;;;5027189;28;20091;-62
2022/07/16 12:49:13;;;;;;;4.05;1.02;;;26.60;36.30;;;;;;5007747;28;20347;-62
2022/07/16 12:51:41;;;;;;;3.47;1.05;;;26.60;36.40;;;;;;5014499;28;20029;-62
2022/07/16 12:54:09;;;;;;;3.72;0.85;;;26.60;36.00;;;;;;5010695;28;20022;-62
2022/07/16 12:59:20;;;;;;;3.30;1.00;;;26.40;36.30;;;;;;5011852;28;20018;-62